sensor_id;sensor_type;location;lat;lon;timestamp;temperature;humidity
74968;SHT30;63523;51.880;12.630;2023-02-08T00:01:36;-3.91;88.42
74968;SHT30;63523;51.880;12.630;2023-02-08T00:04:01;-3.91;88.87
74968;SHT30;63523;51.880;12.630;2023-02-08T00:06:27;-3.89;88.67
74968;SHT30;63523;51.880;12.630;2023-02-08T00:08:52;-3.89;88.80
74968;SHT30;63523;51.880;12.630;2023-02-08T00:11:18;-3.95;88.92
74968;SHT30;63523;51.880;12.630;2023-02-08T00:13:43;-3.89;88.10
74968;SHT30;63523;51.880;12.630;2023-02-08T00:16:09;-3.98;88.69
74968;SHT30;63523;51.880;12.630;2023-02-08T00:18:36;-4.05;88.63
74968;SHT30;63523;51.880;12.630;2023-02-08T00:21:07;-4.15;88.63
74968;SHT30;63523;51.880;12.630;2023-02-08T00:23:32;-4.19;88.65
74968;SHT30;63523;51.880;12.630;2023-02-08T00:25:58;-4.20;89.06
74968;SHT30;63523;51.880;12.630;2023-02-08T00:28:23;-4.24;89.05
74968;SHT30;63523;51.880;12.630;2023-02-08T00:30:49;-4.24;89.41
74968;SHT30;63523;51.880;12.630;2023-02-08T00:33:14;-4.23;89.40
74968;SHT30;63523;51.880;12.630;2023-02-08T00:35:40;-4.23;89.27
74968;SHT30;63523;51.880;12.630;2023-02-08T00:38:06;-4.26;89.27
74968;SHT30;63523;51.880;12.630;2023-02-08T00:40:32;-4.22;89.66
74968;SHT30;63523;51.880;12.630;2023-02-08T00:42:57;-4.17;89.90
74968;SHT30;63523;51.880;12.630;2023-02-08T00:45:23;-4.17;89.89
74968;SHT30;63523;51.880;12.630;2023-02-08T00:47:48;-4.13;89.83
74968;SHT30;63523;51.880;12.630;2023-02-08T00:50:14;-4.17;89.68
74968;SHT30;63523;51.880;12.630;2023-02-08T00:52:39;-4.16;90.08
74968;SHT30;63523;51.880;12.630;2023-02-08T00:55:05;-4.13;90.11
74968;SHT30;63523;51.880;12.630;2023-02-08T00:57:32;-4.10;90.18
74968;SHT30;63523;51.880;12.630;2023-02-08T00:59:57;-4.03;90.18
74968;SHT30;63523;51.880;12.630;2023-02-08T01:02:23;-4.01;89.43
74968;SHT30;63523;51.880;12.630;2023-02-08T01:04:49;-4.05;89.38
74968;SHT30;63523;51.880;12.630;2023-02-08T01:07:14;-4.06;89.65
74968;SHT30;63523;51.880;12.630;2023-02-08T01:09:40;-3.99;88.81
74968;SHT30;63523;51.880;12.630;2023-02-08T01:12:05;-4.10;89.04
74968;SHT30;63523;51.880;12.630;2023-02-08T01:14:31;-4.15;89.06
74968;SHT30;63523;51.880;12.630;2023-02-08T01:16:56;-4.24;88.89
74968;SHT30;63523;51.880;12.630;2023-02-08T01:19:22;-4.32;88.75
74968;SHT30;63523;51.880;12.630;2023-02-08T01:21:47;-4.40;88.98
74968;SHT30;63523;51.880;12.630;2023-02-08T01:24:16;-4.47;88.71
74968;SHT30;63523;51.880;12.630;2023-02-08T01:26:42;-4.57;88.48
74968;SHT30;63523;51.880;12.630;2023-02-08T01:29:08;-4.65;87.79
74968;SHT30;63523;51.880;12.630;2023-02-08T01:31:36;-4.75;88.52
74968;SHT30;63523;51.880;12.630;2023-02-08T01:34:03;-4.78;88.57
74968;SHT30;63523;51.880;12.630;2023-02-08T01:36:30;-4.79;88.42
74968;SHT30;63523;51.880;12.630;2023-02-08T01:38:56;-4.82;88.64
74968;SHT30;63523;51.880;12.630;2023-02-08T01:41:28;-4.85;89.07
74968;SHT30;63523;51.880;12.630;2023-02-08T01:46:44;-4.82;89.81
74968;SHT30;63523;51.880;12.630;2023-02-08T01:51:51;-4.82;89.66
74968;SHT30;63523;51.880;12.630;2023-02-08T01:54:19;-4.85;89.20
74968;SHT30;63523;51.880;12.630;2023-02-08T01:56:46;-4.88;89.28
74968;SHT30;63523;51.880;12.630;2023-02-08T01:59:16;-4.87;89.59
74968;SHT30;63523;51.880;12.630;2023-02-08T02:01:44;-4.85;89.60
74968;SHT30;63523;51.880;12.630;2023-02-08T02:04:10;-4.81;89.65
74968;SHT30;63523;51.880;12.630;2023-02-08T02:06:40;-4.79;89.51
74968;SHT30;63523;51.880;12.630;2023-02-08T02:11:32;-4.79;89.03
74968;SHT30;63523;51.880;12.630;2023-02-08T02:13:59;-4.84;89.02
74968;SHT30;63523;51.880;12.630;2023-02-08T02:16:25;-4.82;89.03
74968;SHT30;63523;51.880;12.630;2023-02-08T02:18:51;-4.87;89.04
74968;SHT30;63523;51.880;12.630;2023-02-08T02:24:47;-4.88;89.01
74968;SHT30;63523;51.880;12.630;2023-02-08T02:33:16;-4.93;88.66
74968;SHT30;63523;51.880;12.630;2023-02-08T02:42:09;-4.93;88.86
74968;SHT30;63523;51.880;12.630;2023-02-08T02:47:51;-5.00;89.01
74968;SHT30;63523;51.880;12.630;2023-02-08T02:50:28;-4.98;89.23
74968;SHT30;63523;51.880;12.630;2023-02-08T02:53:21;-4.99;89.35
74968;SHT30;63523;51.880;12.630;2023-02-08T02:55:55;-4.96;89.29
74968;SHT30;63523;51.880;12.630;2023-02-08T02:58:23;-4.95;89.21
74968;SHT30;63523;51.880;12.630;2023-02-08T03:00:56;-4.95;89.08
74968;SHT30;63523;51.880;12.630;2023-02-08T03:03:24;-4.93;88.86
74968;SHT30;63523;51.880;12.630;2023-02-08T03:05:52;-4.98;89.22
74968;SHT30;63523;51.880;12.630;2023-02-08T03:22:27;-5.05;88.39
74968;SHT30;63523;51.880;12.630;2023-02-08T03:25:08;-5.00;88.36
74968;SHT30;63523;51.880;12.630;2023-02-08T03:27:50;-5.05;88.06
74968;SHT30;63523;51.880;12.630;2023-02-08T03:30:31;-5.13;88.27
74968;SHT30;63523;51.880;12.630;2023-02-08T03:33:14;-5.12;88.31
74968;SHT30;63523;51.880;12.630;2023-02-08T03:35:49;-5.20;88.14
74968;SHT30;63523;51.880;12.630;2023-02-08T03:38:24;-5.28;88.56
74968;SHT30;63523;51.880;12.630;2023-02-08T03:40:52;-5.35;89.03
74968;SHT30;63523;51.880;12.630;2023-02-08T03:43:28;-5.38;88.93
74968;SHT30;63523;51.880;12.630;2023-02-08T03:46:07;-5.43;88.99
74968;SHT30;63523;51.880;12.630;2023-02-08T03:48:35;-5.43;89.02
74968;SHT30;63523;51.880;12.630;2023-02-08T03:51:02;-5.47;89.28
74968;SHT30;63523;51.880;12.630;2023-02-08T03:53:30;-5.48;89.67
74968;SHT30;63523;51.880;12.630;2023-02-08T03:56:07;-5.51;89.40
74968;SHT30;63523;51.880;12.630;2023-02-08T03:58:41;-5.51;89.52
74968;SHT30;63523;51.880;12.630;2023-02-08T04:01:31;-5.52;89.45
74968;SHT30;63523;51.880;12.630;2023-02-08T04:03:58;-5.54;88.91
74968;SHT30;63523;51.880;12.630;2023-02-08T04:06:24;-5.57;89.19
74968;SHT30;63523;51.880;12.630;2023-02-08T04:08:50;-5.64;89.26
74968;SHT30;63523;51.880;12.630;2023-02-08T04:11:16;-5.60;89.58
74968;SHT30;63523;51.880;12.630;2023-02-08T04:13:41;-5.58;89.61
74968;SHT30;63523;51.880;12.630;2023-02-08T04:16:10;-5.62;89.18
74968;SHT30;63523;51.880;12.630;2023-02-08T04:18:35;-5.61;89.08
74968;SHT30;63523;51.880;12.630;2023-02-08T04:21:01;-5.61;89.07
74968;SHT30;63523;51.880;12.630;2023-02-08T04:23:27;-5.62;89.34
74968;SHT30;63523;51.880;12.630;2023-02-08T04:25:52;-5.62;89.35
74968;SHT30;63523;51.880;12.630;2023-02-08T04:28:18;-5.60;89.30
74968;SHT30;63523;51.880;12.630;2023-02-08T04:30:43;-5.58;89.42
74968;SHT30;63523;51.880;12.630;2023-02-08T04:33:09;-5.57;89.77
74968;SHT30;63523;51.880;12.630;2023-02-08T04:35:36;-5.54;90.01
74968;SHT30;63523;51.880;12.630;2023-02-08T04:38:02;-5.48;89.94
74968;SHT30;63523;51.880;12.630;2023-02-08T04:40:27;-5.48;90.00
74968;SHT30;63523;51.880;12.630;2023-02-08T04:42:53;-5.48;89.96
74968;SHT30;63523;51.880;12.630;2023-02-08T04:45:18;-5.46;89.79
74968;SHT30;63523;51.880;12.630;2023-02-08T04:47:44;-5.43;89.48
74968;SHT30;63523;51.880;12.630;2023-02-08T04:50:09;-5.41;88.38
74968;SHT30;63523;51.880;12.630;2023-02-08T04:52:35;-5.46;88.40
74968;SHT30;63523;51.880;12.630;2023-02-08T04:55:00;-5.48;88.69
74968;SHT30;63523;51.880;12.630;2023-02-08T04:57:26;-5.46;88.70
74968;SHT30;63523;51.880;12.630;2023-02-08T04:59:51;-5.51;88.27
74968;SHT30;63523;51.880;12.630;2023-02-08T05:02:16;-5.51;88.13
74968;SHT30;63523;51.880;12.630;2023-02-08T05:04:42;-5.57;88.17
74968;SHT30;63523;51.880;12.630;2023-02-08T05:07:07;-5.61;87.85
74968;SHT30;63523;51.880;12.630;2023-02-08T05:09:33;-5.65;88.07
74968;SHT30;63523;51.880;12.630;2023-02-08T05:11:58;-5.62;88.45
74968;SHT30;63523;51.880;12.630;2023-02-08T05:14:24;-5.65;88.78
74968;SHT30;63523;51.880;12.630;2023-02-08T05:16:50;-5.64;88.84
74968;SHT30;63523;51.880;12.630;2023-02-08T05:19:15;-5.68;89.24
74968;SHT30;63523;51.880;12.630;2023-02-08T05:21:41;-5.65;89.68
74968;SHT30;63523;51.880;12.630;2023-02-08T05:24:06;-5.61;89.33
74968;SHT30;63523;51.880;12.630;2023-02-08T05:26:37;-5.57;89.15
74968;SHT30;63523;51.880;12.630;2023-02-08T05:29:03;-5.57;89.12
74968;SHT30;63523;51.880;12.630;2023-02-08T05:31:29;-5.65;89.34
74968;SHT30;63523;51.880;12.630;2023-02-08T05:33:54;-5.54;89.44
74968;SHT30;63523;51.880;12.630;2023-02-08T05:36:20;-5.58;88.96
74968;SHT30;63523;51.880;12.630;2023-02-08T05:38:47;-5.60;88.59
74968;SHT30;63523;51.880;12.630;2023-02-08T05:41:13;-5.65;88.53
74968;SHT30;63523;51.880;12.630;2023-02-08T05:43:38;-5.71;89.02
74968;SHT30;63523;51.880;12.630;2023-02-08T05:46:04;-5.74;88.81
74968;SHT30;63523;51.880;12.630;2023-02-08T05:48:30;-5.79;89.39
74968;SHT30;63523;51.880;12.630;2023-02-08T05:50:56;-5.74;89.63
74968;SHT30;63523;51.880;12.630;2023-02-08T05:53:21;-5.69;88.71
74968;SHT30;63523;51.880;12.630;2023-02-08T05:55:47;-5.74;88.88
74968;SHT30;63523;51.880;12.630;2023-02-08T05:58:13;-5.83;89.03
74968;SHT30;63523;51.880;12.630;2023-02-08T06:00:39;-5.78;89.11
74968;SHT30;63523;51.880;12.630;2023-02-08T06:03:05;-5.78;88.94
74968;SHT30;63523;51.880;12.630;2023-02-08T06:05:31;-5.79;89.16
74968;SHT30;63523;51.880;12.630;2023-02-08T06:07:56;-5.81;89.12
74968;SHT30;63523;51.880;12.630;2023-02-08T06:10:22;-5.83;88.92
74968;SHT30;63523;51.880;12.630;2023-02-08T06:12:48;-5.74;88.59
74968;SHT30;63523;51.880;12.630;2023-02-08T06:15:13;-5.74;88.36
74968;SHT30;63523;51.880;12.630;2023-02-08T06:17:39;-5.77;88.05
74968;SHT30;63523;51.880;12.630;2023-02-08T06:20:04;-5.82;88.70
74968;SHT30;63523;51.880;12.630;2023-02-08T06:22:30;-5.83;88.78
74968;SHT30;63523;51.880;12.630;2023-02-08T06:25:00;-5.86;88.54
74968;SHT30;63523;51.880;12.630;2023-02-08T06:27:26;-5.85;88.69
74968;SHT30;63523;51.880;12.630;2023-02-08T06:29:52;-5.96;88.75
74968;SHT30;63523;51.880;12.630;2023-02-08T06:32:17;-5.85;88.04
74968;SHT30;63523;51.880;12.630;2023-02-08T06:34:43;-5.90;88.38
74968;SHT30;63523;51.880;12.630;2023-02-08T06:37:08;-5.93;88.59
74968;SHT30;63523;51.880;12.630;2023-02-08T06:39:34;-5.95;88.82
74968;SHT30;63523;51.880;12.630;2023-02-08T06:42:00;-5.98;88.54
74968;SHT30;63523;51.880;12.630;2023-02-08T06:44:25;-5.95;88.12
74968;SHT30;63523;51.880;12.630;2023-02-08T06:46:51;-6.00;88.42
74968;SHT30;63523;51.880;12.630;2023-02-08T06:49:17;-5.92;88.21
74968;SHT30;63523;51.880;12.630;2023-02-08T06:51:43;-5.99;88.65
74968;SHT30;63523;51.880;12.630;2023-02-08T06:54:08;-6.03;88.74
74968;SHT30;63523;51.880;12.630;2023-02-08T06:56:34;-6.10;88.67
74968;SHT30;63523;51.880;12.630;2023-02-08T06:59:00;-6.09;88.85
74968;SHT30;63523;51.880;12.630;2023-02-08T07:01:25;-6.10;88.97
74968;SHT30;63523;51.880;12.630;2023-02-08T07:03:51;-6.13;89.14
74968;SHT30;63523;51.880;12.630;2023-02-08T07:06:18;-6.16;89.46
74968;SHT30;63523;51.880;12.630;2023-02-08T07:08:44;-6.14;89.32
74968;SHT30;63523;51.880;12.630;2023-02-08T07:11:13;-6.14;89.36
74968;SHT30;63523;51.880;12.630;2023-02-08T07:13:39;-6.10;89.29
74968;SHT30;63523;51.880;12.630;2023-02-08T07:16:05;-6.06;88.80
74968;SHT30;63523;51.880;12.630;2023-02-08T07:18:32;-5.99;88.77
74968;SHT30;63523;51.880;12.630;2023-02-08T07:20:57;-5.98;88.26
74968;SHT30;63523;51.880;12.630;2023-02-08T07:23:23;-5.93;88.16
74968;SHT30;63523;51.880;12.630;2023-02-08T07:26:03;-5.93;87.51
74968;SHT30;63523;51.880;12.630;2023-02-08T07:28:29;-5.95;88.06
74968;SHT30;63523;51.880;12.630;2023-02-08T07:30:55;-5.86;88.65
74968;SHT30;63523;51.880;12.630;2023-02-08T07:33:21;-5.72;86.98
74968;SHT30;63523;51.880;12.630;2023-02-08T07:35:47;-5.71;87.51
74968;SHT30;63523;51.880;12.630;2023-02-08T07:38:13;-5.74;87.27
74968;SHT30;63523;51.880;12.630;2023-02-08T07:40:38;-5.60;86.95
74968;SHT30;63523;51.880;12.630;2023-02-08T07:43:04;-5.44;86.01
74968;SHT30;63523;51.880;12.630;2023-02-08T07:45:30;-5.52;86.38
74968;SHT30;63523;51.880;12.630;2023-02-08T07:47:56;-5.52;86.96
74968;SHT30;63523;51.880;12.630;2023-02-08T07:50:21;-5.47;87.65
74968;SHT30;63523;51.880;12.630;2023-02-08T07:52:47;-5.41;87.61
74968;SHT30;63523;51.880;12.630;2023-02-08T07:55:13;-5.30;87.46
74968;SHT30;63523;51.880;12.630;2023-02-08T07:57:43;-5.22;87.53
74968;SHT30;63523;51.880;12.630;2023-02-08T08:00:09;-5.12;87.48
74968;SHT30;63523;51.880;12.630;2023-02-08T08:02:35;-5.10;87.50
74968;SHT30;63523;51.880;12.630;2023-02-08T08:05:01;-5.03;87.72
74968;SHT30;63523;51.880;12.630;2023-02-08T08:07:26;-4.88;87.47
74968;SHT30;63523;51.880;12.630;2023-02-08T08:09:52;-4.89;87.20
74968;SHT30;63523;51.880;12.630;2023-02-08T08:12:17;-4.82;86.54
74968;SHT30;63523;51.880;12.630;2023-02-08T08:14:43;-4.78;86.64
74968;SHT30;63523;51.880;12.630;2023-02-08T08:17:08;-4.71;86.65
74968;SHT30;63523;51.880;12.630;2023-02-08T08:19:34;-4.58;86.39
74968;SHT30;63523;51.880;12.630;2023-02-08T08:21:59;-4.64;85.89
74968;SHT30;63523;51.880;12.630;2023-02-08T08:24:25;-4.61;86.75
74968;SHT30;63523;51.880;12.630;2023-02-08T08:26:50;-4.53;86.64
74968;SHT30;63523;51.880;12.630;2023-02-08T08:29:16;-4.44;86.08
74968;SHT30;63523;51.880;12.630;2023-02-08T08:31:42;-4.40;86.31
74968;SHT30;63523;51.880;12.630;2023-02-08T08:34:08;-4.41;86.12
74968;SHT30;63523;51.880;12.630;2023-02-08T08:36:34;-4.29;85.85
74968;SHT30;63523;51.880;12.630;2023-02-08T08:38:59;-4.20;86.29
74968;SHT30;63523;51.880;12.630;2023-02-08T08:41:25;-4.15;86.38
74968;SHT30;63523;51.880;12.630;2023-02-08T08:43:53;-3.99;86.78
74968;SHT30;63523;51.880;12.630;2023-02-08T08:46:18;-3.88;86.15
74968;SHT30;63523;51.880;12.630;2023-02-08T08:48:45;-3.67;84.35
74968;SHT30;63523;51.880;12.630;2023-02-08T08:51:11;-3.71;84.72
74968;SHT30;63523;51.880;12.630;2023-02-08T08:53:37;-3.64;84.74
74968;SHT30;63523;51.880;12.630;2023-02-08T08:56:03;-3.54;85.74
74968;SHT30;63523;51.880;12.630;2023-02-08T08:58:28;-3.36;84.13
74968;SHT30;63523;51.880;12.630;2023-02-08T09:00:58;-3.29;85.35
74968;SHT30;63523;51.880;12.630;2023-02-08T09:03:25;-3.25;84.43
74968;SHT30;63523;51.880;12.630;2023-02-08T09:05:50;-3.22;84.11
74968;SHT30;63523;51.880;12.630;2023-02-08T09:08:16;-3.16;84.11
74968;SHT30;63523;51.880;12.630;2023-02-08T09:10:42;-3.12;83.88
74968;SHT30;63523;51.880;12.630;2023-02-08T09:13:07;-3.01;83.54
74968;SHT30;63523;51.880;12.630;2023-02-08T09:15:33;-3.04;83.40
74968;SHT30;63523;51.880;12.630;2023-02-08T09:18:02;-2.96;83.94
74968;SHT30;63523;51.880;12.630;2023-02-08T09:20:27;-2.96;84.26
74968;SHT30;63523;51.880;12.630;2023-02-08T09:22:53;-2.70;84.30
74968;SHT30;63523;51.880;12.630;2023-02-08T09:25:18;-2.52;81.86
74968;SHT30;63523;51.880;12.630;2023-02-08T09:27:44;-2.52;83.44
74968;SHT30;63523;51.880;12.630;2023-02-08T09:30:10;-2.39;83.80
74968;SHT30;63523;51.880;12.630;2023-02-08T09:32:35;-2.21;83.23
74968;SHT30;63523;51.880;12.630;2023-02-08T09:35:04;-2.14;82.53
74968;SHT30;63523;51.880;12.630;2023-02-08T09:37:30;-2.15;82.85
74968;SHT30;63523;51.880;12.630;2023-02-08T09:39:55;-2.15;82.50
74968;SHT30;63523;51.880;12.630;2023-02-08T09:42:43;-1.93;82.05
74968;SHT30;63523;51.880;12.630;2023-02-08T09:45:25;-1.84;81.83
74968;SHT30;63523;51.880;12.630;2023-02-08T09:53:09;-1.80;81.48
74968;SHT30;63523;51.880;12.630;2023-02-08T10:00:45;-1.71;82.49
74968;SHT30;63523;51.880;12.630;2023-02-08T10:05:52;-1.52;82.53
74968;SHT30;63523;51.880;12.630;2023-02-08T10:08:18;-1.22;81.93
74968;SHT30;63523;51.880;12.630;2023-02-08T10:10:54;-1.19;81.58
74968;SHT30;63523;51.880;12.630;2023-02-08T10:26:54;-1.05;80.86
74968;SHT30;63523;51.880;12.630;2023-02-08T10:31:53;-0.88;79.42
74968;SHT30;63523;51.880;12.630;2023-02-08T10:34:29;-0.69;78.52
74968;SHT30;63523;51.880;12.630;2023-02-08T10:37:00;-0.57;77.87
74968;SHT30;63523;51.880;12.630;2023-02-08T10:39:32;-0.79;77.43
74968;SHT30;63523;51.880;12.630;2023-02-08T10:41:59;-0.67;78.34
74968;SHT30;63523;51.880;12.630;2023-02-08T10:47:27;-0.79;78.69
74968;SHT30;63523;51.880;12.630;2023-02-08T10:50:05;-0.74;78.09
74968;SHT30;63523;51.880;12.630;2023-02-08T10:52:35;-0.43;76.92
74968;SHT30;63523;51.880;12.630;2023-02-08T10:55:01;-0.25;75.30
74968;SHT30;63523;51.880;12.630;2023-02-08T10:57:30;-0.42;76.62
74968;SHT30;63523;51.880;12.630;2023-02-08T11:00:17;-0.45;77.96
74968;SHT30;63523;51.880;12.630;2023-02-08T11:02:43;-0.29;77.18
74968;SHT30;63523;51.880;12.630;2023-02-08T11:05:14;-0.22;76.55
74968;SHT30;63523;51.880;12.630;2023-02-08T11:07:41;-0.23;76.24
74968;SHT30;63523;51.880;12.630;2023-02-08T11:12:56;-0.14;77.11
74968;SHT30;63523;51.880;12.630;2023-02-08T11:17:57;0.07;75.25
74968;SHT30;63523;51.880;12.630;2023-02-08T11:20:35;0.34;74.42
74968;SHT30;63523;51.880;12.630;2023-02-08T11:25:44;0.34;72.65
74968;SHT30;63523;51.880;12.630;2023-02-08T11:28:27;0.09;74.59
74968;SHT30;63523;51.880;12.630;2023-02-08T11:30:55;-0.23;77.16
74968;SHT30;63523;51.880;12.630;2023-02-08T11:33:21;-0.15;76.62
74968;SHT30;63523;51.880;12.630;2023-02-08T11:35:59;-0.18;76.76
74968;SHT30;63523;51.880;12.630;2023-02-08T11:38:25;0.07;74.17
74968;SHT30;63523;51.880;12.630;2023-02-08T11:40:54;-0.07;76.68
74968;SHT30;63523;51.880;12.630;2023-02-08T11:43:32;-0.01;76.55
74968;SHT30;63523;51.880;12.630;2023-02-08T11:46:00;0.16;75.45
74968;SHT30;63523;51.880;12.630;2023-02-08T11:51:01;0.00;77.03
74968;SHT30;63523;51.880;12.630;2023-02-08T11:53:36;0.05;76.96
74968;SHT30;63523;51.880;12.630;2023-02-08T11:56:19;0.06;77.19
74968;SHT30;63523;51.880;12.630;2023-02-08T12:01:40;0.36;75.56
74968;SHT30;63523;51.880;12.630;2023-02-08T12:04:09;0.45;74.36
74968;SHT30;63523;51.880;12.630;2023-02-08T12:12:16;0.59;74.74
74968;SHT30;63523;51.880;12.630;2023-02-08T12:15:00;0.72;71.78
74968;SHT30;63523;51.880;12.630;2023-02-08T12:20:39;0.80;71.84
74968;SHT30;63523;51.880;12.630;2023-02-08T12:23:31;0.79;73.89
74968;SHT30;63523;51.880;12.630;2023-02-08T12:28:49;1.13;70.47
74968;SHT30;63523;51.880;12.630;2023-02-08T12:34:21;1.07;70.73
74968;SHT30;63523;51.880;12.630;2023-02-08T12:43:07;1.08;72.67
74968;SHT30;63523;51.880;12.630;2023-02-08T12:45:53;1.14;72.53
74968;SHT30;63523;51.880;12.630;2023-02-08T12:51:32;1.31;70.25
74968;SHT30;63523;51.880;12.630;2023-02-08T12:54:28;1.22;71.47
74968;SHT30;63523;51.880;12.630;2023-02-08T12:56:55;1.31;69.81
74968;SHT30;63523;51.880;12.630;2023-02-08T12:59:27;1.37;70.87
74968;SHT30;63523;51.880;12.630;2023-02-08T13:01:57;1.38;70.91
74968;SHT30;63523;51.880;12.630;2023-02-08T13:04:41;1.54;70.32
74968;SHT30;63523;51.880;12.630;2023-02-08T13:07:24;1.58;71.04
74968;SHT30;63523;51.880;12.630;2023-02-08T13:12:25;1.54;70.44
74968;SHT30;63523;51.880;12.630;2023-02-08T13:17:44;1.55;70.49
74968;SHT30;63523;51.880;12.630;2023-02-08T13:23:25;1.69;70.05
74968;SHT30;63523;51.880;12.630;2023-02-08T13:25:59;1.69;69.87
74968;SHT30;63523;51.880;12.630;2023-02-08T13:28:27;1.62;70.61
74968;SHT30;63523;51.880;12.630;2023-02-08T13:31:03;1.56;71.05
74968;SHT30;63523;51.880;12.630;2023-02-08T13:33:35;1.79;69.61
74968;SHT30;63523;51.880;12.630;2023-02-08T13:36:03;1.79;70.25
74968;SHT30;63523;51.880;12.630;2023-02-08T13:38:33;1.76;70.17
74968;SHT30;63523;51.880;12.630;2023-02-08T13:41:06;1.75;70.52
74968;SHT30;63523;51.880;12.630;2023-02-08T13:43:39;1.80;69.75
74968;SHT30;63523;51.880;12.630;2023-02-08T13:46:06;1.87;70.15
74968;SHT30;63523;51.880;12.630;2023-02-08T13:49:01;1.86;68.30
74968;SHT30;63523;51.880;12.630;2023-02-08T13:59:04;1.97;68.24
74968;SHT30;63523;51.880;12.630;2023-02-08T14:02:31;1.86;69.26
74968;SHT30;63523;51.880;12.630;2023-02-08T14:04:43;2.04;68.64
74968;SHT30;63523;51.880;12.630;2023-02-08T14:07:41;2.16;68.13
74968;SHT30;63523;51.880;12.630;2023-02-08T14:10:29;2.11;68.25
74968;SHT30;63523;51.880;12.630;2023-02-08T14:13:26;2.07;67.70
74968;SHT30;63523;51.880;12.630;2023-02-08T14:16:26;2.20;67.34
74968;SHT30;63523;51.880;12.630;2023-02-08T14:18:54;2.20;66.55
74968;SHT30;63523;51.880;12.630;2023-02-08T14:24:16;2.10;67.28
74968;SHT30;63523;51.880;12.630;2023-02-08T14:26:43;2.00;67.62
74968;SHT30;63523;51.880;12.630;2023-02-08T14:29:21;2.11;66.77
74968;SHT30;63523;51.880;12.630;2023-02-08T14:31:49;2.27;66.70
74968;SHT30;63523;51.880;12.630;2023-02-08T14:36:46;2.18;66.81
74968;SHT30;63523;51.880;12.630;2023-02-08T14:39:25;2.24;66.79
74968;SHT30;63523;51.880;12.630;2023-02-08T14:41:59;2.14;67.18
74968;SHT30;63523;51.880;12.630;2023-02-08T14:47:12;2.23;66.78
74968;SHT30;63523;51.880;12.630;2023-02-08T14:49:41;2.34;65.93
74968;SHT30;63523;51.880;12.630;2023-02-08T14:52:19;2.18;66.98
74968;SHT30;63523;51.880;12.630;2023-02-08T14:55:05;2.07;67.14
74968;SHT30;63523;51.880;12.630;2023-02-08T14:57:35;2.21;65.84
74968;SHT30;63523;51.880;12.630;2023-02-08T15:00:13;2.02;67.00
74968;SHT30;63523;51.880;12.630;2023-02-08T15:02:44;2.00;67.27
74968;SHT30;63523;51.880;12.630;2023-02-08T15:05:23;2.04;67.34
74968;SHT30;63523;51.880;12.630;2023-02-08T15:07:52;1.97;67.34
74968;SHT30;63523;51.880;12.630;2023-02-08T15:10:19;1.92;67.83
74968;SHT30;63523;51.880;12.630;2023-02-08T15:12:53;1.93;67.87
74968;SHT30;63523;51.880;12.630;2023-02-08T15:15:39;1.95;68.09
74968;SHT30;63523;51.880;12.630;2023-02-08T15:18:15;1.96;67.72
74968;SHT30;63523;51.880;12.630;2023-02-08T15:20:43;1.93;67.87
74968;SHT30;63523;51.880;12.630;2023-02-08T15:23:21;1.87;68.50
74968;SHT30;63523;51.880;12.630;2023-02-08T15:26:20;1.89;68.09
74968;SHT30;63523;51.880;12.630;2023-02-08T15:28:46;1.80;68.79
74968;SHT30;63523;51.880;12.630;2023-02-08T15:31:16;1.75;68.75
74968;SHT30;63523;51.880;12.630;2023-02-08T15:33:43;1.72;68.65
74968;SHT30;63523;51.880;12.630;2023-02-08T15:36:20;1.59;69.11
74968;SHT30;63523;51.880;12.630;2023-02-08T15:38:47;1.55;68.85
74968;SHT30;63523;51.880;12.630;2023-02-08T15:41:15;1.66;68.61
74968;SHT30;63523;51.880;12.630;2023-02-08T15:43:48;1.51;68.59
74968;SHT30;63523;51.880;12.630;2023-02-08T15:46:20;1.52;68.34
74968;SHT30;63523;51.880;12.630;2023-02-08T15:48:47;1.52;68.24
74968;SHT30;63523;51.880;12.630;2023-02-08T15:51:15;1.45;68.77
74968;SHT30;63523;51.880;12.630;2023-02-08T15:53:44;1.47;68.78
74968;SHT30;63523;51.880;12.630;2023-02-08T15:56:20;1.45;68.15
74968;SHT30;63523;51.880;12.630;2023-02-08T15:58:51;1.35;68.48
74968;SHT30;63523;51.880;12.630;2023-02-08T16:01:19;1.34;68.63
74968;SHT30;63523;51.880;12.630;2023-02-08T16:03:50;1.30;69.20
74968;SHT30;63523;51.880;12.630;2023-02-08T16:06:25;1.13;69.39
74968;SHT30;63523;51.880;12.630;2023-02-08T16:08:54;1.13;69.36
74968;SHT30;63523;51.880;12.630;2023-02-08T16:11:26;1.08;69.45
74968;SHT30;63523;51.880;12.630;2023-02-08T16:13:55;0.99;69.76
74968;SHT30;63523;51.880;12.630;2023-02-08T16:21:28;0.76;71.12
74968;SHT30;63523;51.880;12.630;2023-02-08T16:24:03;0.64;71.60
74968;SHT30;63523;51.880;12.630;2023-02-08T16:26:34;0.59;71.69
74968;SHT30;63523;51.880;12.630;2023-02-08T16:29:04;0.58;71.49
74968;SHT30;63523;51.880;12.630;2023-02-08T16:31:32;0.57;71.57
74968;SHT30;63523;51.880;12.630;2023-02-08T16:36:31;0.58;71.29
74968;SHT30;63523;51.880;12.630;2023-02-08T16:44:26;0.42;71.32
74968;SHT30;63523;51.880;12.630;2023-02-08T16:46:53;0.36;71.70
74968;SHT30;63523;51.880;12.630;2023-02-08T16:49:18;0.28;71.99
74968;SHT30;63523;51.880;12.630;2023-02-08T16:51:44;0.37;71.54
74968;SHT30;63523;51.880;12.630;2023-02-08T16:54:15;0.37;71.66
74968;SHT30;63523;51.880;12.630;2023-02-08T16:56:42;0.25;71.62
74968;SHT30;63523;51.880;12.630;2023-02-08T16:59:11;0.24;71.83
74968;SHT30;63523;51.880;12.630;2023-02-08T17:01:37;0.18;71.83
74968;SHT30;63523;51.880;12.630;2023-02-08T17:04:03;0.16;71.92
74968;SHT30;63523;51.880;12.630;2023-02-08T17:06:34;0.14;72.03
74968;SHT30;63523;51.880;12.630;2023-02-08T17:09:02;0.03;72.38
74968;SHT30;63523;51.880;12.630;2023-02-08T17:11:28;-0.05;72.64
74968;SHT30;63523;51.880;12.630;2023-02-08T17:13:54;0.03;72.46
74968;SHT30;63523;51.880;12.630;2023-02-08T17:16:23;0.09;71.91
74968;SHT30;63523;51.880;12.630;2023-02-08T17:18:49;0.16;71.79
74968;SHT30;63523;51.880;12.630;2023-02-08T17:21:15;0.07;71.77
74968;SHT30;63523;51.880;12.630;2023-02-08T17:23:41;0.05;72.03
74968;SHT30;63523;51.880;12.630;2023-02-08T17:26:15;0.06;71.36
74968;SHT30;63523;51.880;12.630;2023-02-08T17:28:42;-0.04;71.68
74968;SHT30;63523;51.880;12.630;2023-02-08T17:31:10;-0.14;71.97
74968;SHT30;63523;51.880;12.630;2023-02-08T17:33:36;-0.08;71.65
74968;SHT30;63523;51.880;12.630;2023-02-08T17:36:05;-0.01;71.46
74968;SHT30;63523;51.880;12.630;2023-02-08T17:38:31;0.02;70.97
74968;SHT30;63523;51.880;12.630;2023-02-08T17:40:56;0.06;70.73
74968;SHT30;63523;51.880;12.630;2023-02-08T17:43:24;0.06;70.61
74968;SHT30;63523;51.880;12.630;2023-02-08T17:45:50;-0.01;70.58
74968;SHT30;63523;51.880;12.630;2023-02-08T17:48:16;-0.04;70.86
74968;SHT30;63523;51.880;12.630;2023-02-08T17:50:43;0.02;70.73
74968;SHT30;63523;51.880;12.630;2023-02-08T17:53:12;-0.10;70.86
74968;SHT30;63523;51.880;12.630;2023-02-08T17:55:40;-0.17;70.83
74968;SHT30;63523;51.880;12.630;2023-02-08T17:58:09;-0.23;70.75
74968;SHT30;63523;51.880;12.630;2023-02-08T18:00:35;-0.26;70.93